sensor_id;sensor_type;location;lat;lon;timestamp;P1;durP1;ratioP1;P2;durP2;ratioP2
38463;SDS011;24243;51.956;5.902;2023-06-22T00:01:51;1.95;;;1.08;;
38463;SDS011;24243;51.956;5.902;2023-06-22T00:04:35;1.40;;;1.00;;
38463;SDS011;24243;51.956;5.902;2023-06-22T00:07:20;1.80;;;1.10;;
38463;SDS011;24243;51.956;5.902;2023-06-22T00:10:04;1.80;;;1.05;;
38463;SDS011;24243;51.956;5.902;2023-06-22T00:12:49;2.22;;;1.15;;
38463;SDS011;24243;51.956;5.902;2023-06-22T00:15:33;1.67;;;1.10;;
38463;SDS011;24243;51.956;5.902;2023-06-22T00:18:18;1.40;;;1.05;;
38463;SDS011;24243;51.956;5.902;2023-06-22T00:21:03;2.35;;;1.08;;
38463;SDS011;24243;51.956;5.902;2023-06-22T00:23:48;1.10;;;0.88;;
38463;SDS011;24243;51.956;5.902;2023-06-22T00:26:32;1.25;;;0.85;;
38463;SDS011;24243;51.956;5.902;2023-06-22T00:29:16;1.30;;;0.90;;
38463;SDS011;24243;51.956;5.902;2023-06-22T00:32:02;1.85;;;0.90;;
38463;SDS011;24243;51.956;5.902;2023-06-22T00:34:47;1.50;;;1.00;;
38463;SDS011;24243;51.956;5.902;2023-06-22T00:37:31;4.18;;;1.30;;
38463;SDS011;24243;51.956;5.902;2023-06-22T00:40:16;1.80;;;1.02;;
38463;SDS011;24243;51.956;5.902;2023-06-22T00:43:05;2.40;;;1.20;;
38463;SDS011;24243;51.956;5.902;2023-06-22T00:45:50;1.67;;;1.10;;
38463;SDS011;24243;51.956;5.902;2023-06-22T00:48:34;1.70;;;1.05;;
38463;SDS011;24243;51.956;5.902;2023-06-22T00:51:20;2.53;;;0.98;;
38463;SDS011;24243;51.956;5.902;2023-06-22T00:54:07;1.80;;;1.25;;
38463;SDS011;24243;51.956;5.902;2023-06-22T00:56:53;2.05;;;1.15;;
38463;SDS011;24243;51.956;5.902;2023-06-22T00:59:39;2.93;;;1.30;;
38463;SDS011;24243;51.956;5.902;2023-06-22T01:02:24;1.98;;;1.15;;
38463;SDS011;24243;51.956;5.902;2023-06-22T01:05:08;1.80;;;1.10;;
38463;SDS011;24243;51.956;5.902;2023-06-22T01:10:54;2.63;;;1.13;;
38463;SDS011;24243;51.956;5.902;2023-06-22T01:16:44;1.80;;;1.27;;
38463;SDS011;24243;51.956;5.902;2023-06-22T01:19:43;2.00;;;1.20;;
38463;SDS011;24243;51.956;5.902;2023-06-22T01:22:30;1.88;;;1.10;;
38463;SDS011;24243;51.956;5.902;2023-06-22T01:25:28;2.08;;;1.20;;
38463;SDS011;24243;51.956;5.902;2023-06-22T01:28:45;2.55;;;1.20;;
38463;SDS011;24243;51.956;5.902;2023-06-22T01:31:31;2.50;;;1.40;;
38463;SDS011;24243;51.956;5.902;2023-06-22T01:34:18;2.03;;;1.27;;
38463;SDS011;24243;51.956;5.902;2023-06-22T01:37:03;2.10;;;1.42;;
38463;SDS011;24243;51.956;5.902;2023-06-22T01:39:48;2.58;;;1.50;;
38463;SDS011;24243;51.956;5.902;2023-06-22T01:42:35;2.55;;;1.23;;
38463;SDS011;24243;51.956;5.902;2023-06-22T01:45:20;4.00;;;1.40;;
38463;SDS011;24243;51.956;5.902;2023-06-22T01:48:05;1.80;;;1.42;;
38463;SDS011;24243;51.956;5.902;2023-06-22T01:50:50;2.13;;;1.30;;
38463;SDS011;24243;51.956;5.902;2023-06-22T01:53:35;1.85;;;1.35;;
38463;SDS011;24243;51.956;5.902;2023-06-22T01:56:19;3.17;;;1.70;;
38463;SDS011;24243;51.956;5.902;2023-06-22T01:59:09;3.05;;;1.23;;
38463;SDS011;24243;51.956;5.902;2023-06-22T02:02:07;1.50;;;1.13;;
38463;SDS011;24243;51.956;5.902;2023-06-22T02:04:56;2.22;;;1.15;;
38463;SDS011;24243;51.956;5.902;2023-06-22T02:07:49;1.80;;;0.98;;
38463;SDS011;24243;51.956;5.902;2023-06-22T02:11:02;3.30;;;1.63;;
38463;SDS011;24243;51.956;5.902;2023-06-22T02:13:47;1.75;;;1.15;;
38463;SDS011;24243;51.956;5.902;2023-06-22T02:16:33;2.58;;;1.42;;
38463;SDS011;24243;51.956;5.902;2023-06-22T02:19:22;2.00;;;1.40;;
38463;SDS011;24243;51.956;5.902;2023-06-22T02:22:06;1.77;;;1.27;;
38463;SDS011;24243;51.956;5.902;2023-06-22T02:24:51;1.90;;;1.45;;
38463;SDS011;24243;51.956;5.902;2023-06-22T02:27:36;2.58;;;1.58;;
38463;SDS011;24243;51.956;5.902;2023-06-22T02:30:24;2.40;;;1.42;;
38463;SDS011;24243;51.956;5.902;2023-06-22T02:33:08;2.17;;;1.35;;
38463;SDS011;24243;51.956;5.902;2023-06-22T02:35:52;2.53;;;1.30;;
38463;SDS011;24243;51.956;5.902;2023-06-22T02:38:37;2.25;;;1.23;;
38463;SDS011;24243;51.956;5.902;2023-06-22T02:41:21;2.45;;;1.58;;
38463;SDS011;24243;51.956;5.902;2023-06-22T02:44:05;3.25;;;1.55;;
38463;SDS011;24243;51.956;5.902;2023-06-22T02:46:49;1.60;;;1.20;;
38463;SDS011;24243;51.956;5.902;2023-06-22T02:49:34;2.63;;;1.50;;
38463;SDS011;24243;51.956;5.902;2023-06-22T02:52:19;1.30;;;1.00;;
38463;SDS011;24243;51.956;5.902;2023-06-22T02:55:03;1.88;;;1.38;;
38463;SDS011;24243;51.956;5.902;2023-06-22T02:57:48;2.53;;;1.67;;
38463;SDS011;24243;51.956;5.902;2023-06-22T03:00:36;2.53;;;1.80;;
38463;SDS011;24243;51.956;5.902;2023-06-22T03:03:20;2.28;;;1.58;;
38463;SDS011;24243;51.956;5.902;2023-06-22T03:06:04;2.38;;;1.73;;
38463;SDS011;24243;51.956;5.902;2023-06-22T03:08:51;2.85;;;1.58;;
38463;SDS011;24243;51.956;5.902;2023-06-22T03:11:36;3.13;;;1.90;;
38463;SDS011;24243;51.956;5.902;2023-06-22T03:14:20;3.40;;;1.85;;
38463;SDS011;24243;51.956;5.902;2023-06-22T03:17:04;2.78;;;1.85;;
38463;SDS011;24243;51.956;5.902;2023-06-22T03:19:50;3.85;;;2.22;;
38463;SDS011;24243;51.956;5.902;2023-06-22T03:22:34;3.63;;;2.10;;
38463;SDS011;24243;51.956;5.902;2023-06-22T03:25:19;3.45;;;2.15;;
38463;SDS011;24243;51.956;5.902;2023-06-22T03:28:03;3.35;;;2.60;;
38463;SDS011;24243;51.956;5.902;2023-06-22T03:30:48;3.92;;;2.75;;
38463;SDS011;24243;51.956;5.902;2023-06-22T03:33:32;3.38;;;2.33;;
38463;SDS011;24243;51.956;5.902;2023-06-22T03:36:19;3.25;;;2.67;;
38463;SDS011;24243;51.956;5.902;2023-06-22T03:39:03;4.80;;;2.92;;
38463;SDS011;24243;51.956;5.902;2023-06-22T03:41:47;3.35;;;2.60;;
38463;SDS011;24243;51.956;5.902;2023-06-22T03:44:31;5.45;;;3.33;;
38463;SDS011;24243;51.956;5.902;2023-06-22T03:47:16;3.67;;;2.92;;
38463;SDS011;24243;51.956;5.902;2023-06-22T03:50:01;5.20;;;3.17;;
38463;SDS011;24243;51.956;5.902;2023-06-22T03:52:47;4.65;;;3.28;;
38463;SDS011;24243;51.956;5.902;2023-06-22T03:55:33;6.10;;;3.55;;
38463;SDS011;24243;51.956;5.902;2023-06-22T03:58:21;3.95;;;3.15;;
38463;SDS011;24243;51.956;5.902;2023-06-22T04:01:05;3.75;;;3.10;;
38463;SDS011;24243;51.956;5.902;2023-06-22T04:03:50;4.57;;;3.55;;
38463;SDS011;24243;51.956;5.902;2023-06-22T04:06:34;5.15;;;3.47;;
38463;SDS011;24243;51.956;5.902;2023-06-22T04:09:18;4.82;;;3.42;;
38463;SDS011;24243;51.956;5.902;2023-06-22T04:12:02;5.93;;;4.05;;
38463;SDS011;24243;51.956;5.902;2023-06-22T04:14:47;4.90;;;3.75;;
38463;SDS011;24243;51.956;5.902;2023-06-22T04:17:31;4.22;;;3.47;;
38463;SDS011;24243;51.956;5.902;2023-06-22T04:20:15;4.18;;;3.30;;
38463;SDS011;24243;51.956;5.902;2023-06-22T04:22:59;5.78;;;4.25;;
38463;SDS011;24243;51.956;5.902;2023-06-22T04:25:43;5.30;;;3.95;;
38463;SDS011;24243;51.956;5.902;2023-06-22T04:28:27;7.43;;;3.97;;
38463;SDS011;24243;51.956;5.902;2023-06-22T04:31:12;6.22;;;4.57;;
38463;SDS011;24243;51.956;5.902;2023-06-22T04:33:56;5.60;;;4.10;;
38463;SDS011;24243;51.956;5.902;2023-06-22T04:36:40;5.57;;;3.92;;
38463;SDS011;24243;51.956;5.902;2023-06-22T04:39:25;5.45;;;4.38;;
38463;SDS011;24243;51.956;5.902;2023-06-22T04:42:11;5.68;;;4.65;;
38463;SDS011;24243;51.956;5.902;2023-06-22T04:44:55;5.60;;;4.55;;
38463;SDS011;24243;51.956;5.902;2023-06-22T04:47:40;5.30;;;4.53;;
38463;SDS011;24243;51.956;5.902;2023-06-22T04:50:24;6.43;;;5.03;;
38463;SDS011;24243;51.956;5.902;2023-06-22T04:53:08;5.93;;;5.22;;
38463;SDS011;24243;51.956;5.902;2023-06-22T04:55:53;5.03;;;4.50;;
38463;SDS011;24243;51.956;5.902;2023-06-22T04:58:37;6.22;;;4.85;;
38463;SDS011;24243;51.956;5.902;2023-06-22T05:01:21;5.00;;;4.05;;
38463;SDS011;24243;51.956;5.902;2023-06-22T05:04:06;7.60;;;6.32;;
38463;SDS011;24243;51.956;5.902;2023-06-22T05:06:52;8.93;;;7.13;;
38463;SDS011;24243;51.956;5.902;2023-06-22T05:09:37;10.23;;;7.97;;
38463;SDS011;24243;51.956;5.902;2023-06-22T05:12:21;9.40;;;7.60;;
38463;SDS011;24243;51.956;5.902;2023-06-22T05:15:06;10.15;;;8.13;;
38463;SDS011;24243;51.956;5.902;2023-06-22T05:17:51;8.30;;;7.50;;
38463;SDS011;24243;51.956;5.902;2023-06-22T05:20:36;11.60;;;9.10;;
38463;SDS011;24243;51.956;5.902;2023-06-22T05:23:20;9.85;;;8.85;;
38463;SDS011;24243;51.956;5.902;2023-06-22T05:26:04;10.10;;;8.18;;
38463;SDS011;24243;51.956;5.902;2023-06-22T05:28:49;9.05;;;8.07;;
38463;SDS011;24243;51.956;5.902;2023-06-22T05:31:33;8.77;;;7.38;;
38463;SDS011;24243;51.956;5.902;2023-06-22T05:34:18;9.30;;;7.78;;
38463;SDS011;24243;51.956;5.902;2023-06-22T05:37:02;7.63;;;6.53;;
38463;SDS011;24243;51.956;5.902;2023-06-22T05:39:47;7.82;;;6.60;;
38463;SDS011;24243;51.956;5.902;2023-06-22T05:42:31;9.40;;;7.55;;
38463;SDS011;24243;51.956;5.902;2023-06-22T05:45:15;8.98;;;6.60;;
38463;SDS011;24243;51.956;5.902;2023-06-22T05:47:59;9.00;;;7.00;;
38463;SDS011;24243;51.956;5.902;2023-06-22T05:50:45;7.13;;;6.28;;
38463;SDS011;24243;51.956;5.902;2023-06-22T05:53:29;8.05;;;6.90;;
38463;SDS011;24243;51.956;5.902;2023-06-22T05:56:13;7.80;;;6.40;;
38463;SDS011;24243;51.956;5.902;2023-06-22T05:58:58;7.25;;;6.15;;
38463;SDS011;24243;51.956;5.902;2023-06-22T06:01:42;7.75;;;6.13;;
38463;SDS011;24243;51.956;5.902;2023-06-22T06:04:26;6.53;;;5.60;;
38463;SDS011;24243;51.956;5.902;2023-06-22T06:07:11;7.68;;;5.78;;
38463;SDS011;24243;51.956;5.902;2023-06-22T06:09:55;7.15;;;6.20;;
38463;SDS011;24243;51.956;5.902;2023-06-22T06:12:40;6.75;;;5.90;;
38463;SDS011;24243;51.956;5.902;2023-06-22T06:15:24;6.05;;;5.45;;
38463;SDS011;24243;51.956;5.902;2023-06-22T06:18:08;7.15;;;5.82;;
38463;SDS011;24243;51.956;5.902;2023-06-22T06:20:52;6.28;;;5.68;;
38463;SDS011;24243;51.956;5.902;2023-06-22T06:23:36;6.70;;;5.53;;
38463;SDS011;24243;51.956;5.902;2023-06-22T06:26:21;6.95;;;5.57;;
38463;SDS011;24243;51.956;5.902;2023-06-22T06:29:14;7.72;;;5.90;;
38463;SDS011;24243;51.956;5.902;2023-06-22T06:32:00;7.45;;;5.68;;
38463;SDS011;24243;51.956;5.902;2023-06-22T06:34:44;6.45;;;5.82;;
38463;SDS011;24243;51.956;5.902;2023-06-22T06:37:28;6.78;;;5.43;;
38463;SDS011;24243;51.956;5.902;2023-06-22T06:40:12;7.80;;;5.78;;
38463;SDS011;24243;51.956;5.902;2023-06-22T06:42:58;7.90;;;6.20;;
38463;SDS011;24243;51.956;5.902;2023-06-22T06:45:42;6.55;;;5.60;;
38463;SDS011;24243;51.956;5.902;2023-06-22T06:48:26;7.35;;;5.70;;
38463;SDS011;24243;51.956;5.902;2023-06-22T06:51:10;6.53;;;5.22;;
38463;SDS011;24243;51.956;5.902;2023-06-22T06:53:55;7.20;;;5.78;;
38463;SDS011;24243;51.956;5.902;2023-06-22T06:56:39;5.45;;;4.95;;
38463;SDS011;24243;51.956;5.902;2023-06-22T06:59:23;7.28;;;5.60;;
38463;SDS011;24243;51.956;5.902;2023-06-22T07:02:07;6.97;;;6.28;;
38463;SDS011;24243;51.956;5.902;2023-06-22T07:04:51;6.75;;;5.75;;
38463;SDS011;24243;51.956;5.902;2023-06-22T07:07:35;7.88;;;5.53;;
38463;SDS011;24243;51.956;5.902;2023-06-22T07:10:20;6.68;;;5.20;;
38463;SDS011;24243;51.956;5.902;2023-06-22T07:13:05;6.32;;;5.70;;
38463;SDS011;24243;51.956;5.902;2023-06-22T07:15:49;7.97;;;6.32;;
38463;SDS011;24243;51.956;5.902;2023-06-22T07:18:33;9.10;;;5.55;;
38463;SDS011;24243;51.956;5.902;2023-06-22T07:21:17;6.80;;;5.88;;
38463;SDS011;24243;51.956;5.902;2023-06-22T07:24:02;7.10;;;5.57;;
38463;SDS011;24243;51.956;5.902;2023-06-22T07:26:49;5.13;;;4.53;;
38463;SDS011;24243;51.956;5.902;2023-06-22T07:29:34;6.05;;;4.63;;
38463;SDS011;24243;51.956;5.902;2023-06-22T07:32:20;6.90;;;5.53;;
38463;SDS011;24243;51.956;5.902;2023-06-22T07:35:04;6.40;;;5.03;;
38463;SDS011;24243;51.956;5.902;2023-06-22T07:37:49;5.70;;;5.10;;
38463;SDS011;24243;51.956;5.902;2023-06-22T07:40:34;6.35;;;4.78;;
38463;SDS011;24243;51.956;5.902;2023-06-22T07:43:18;7.43;;;5.63;;
38463;SDS011;24243;51.956;5.902;2023-06-22T07:46:03;7.03;;;5.07;;
38463;SDS011;24243;51.956;5.902;2023-06-22T07:48:47;6.18;;;4.95;;
38463;SDS011;24243;51.956;5.902;2023-06-22T07:51:32;4.30;;;3.80;;
38463;SDS011;24243;51.956;5.902;2023-06-22T07:54:16;6.43;;;4.90;;
38463;SDS011;24243;51.956;5.902;2023-06-22T07:57:01;5.88;;;4.10;;
38463;SDS011;24243;51.956;5.902;2023-06-22T07:59:45;5.20;;;3.38;;
38463;SDS011;24243;51.956;5.902;2023-06-22T08:02:29;5.85;;;4.28;;
38463;SDS011;24243;51.956;5.902;2023-06-22T08:05:14;6.00;;;4.80;;
38463;SDS011;24243;51.956;5.902;2023-06-22T08:08:01;4.83;;;4.17;;
38463;SDS011;24243;51.956;5.902;2023-06-22T08:10:45;4.68;;;4.20;;
38463;SDS011;24243;51.956;5.902;2023-06-22T08:13:29;4.80;;;4.30;;
38463;SDS011;24243;51.956;5.902;2023-06-22T08:16:14;4.18;;;3.75;;
38463;SDS011;24243;51.956;5.902;2023-06-22T08:18:58;5.78;;;4.03;;
38463;SDS011;24243;51.956;5.902;2023-06-22T08:21:42;4.90;;;3.97;;
38463;SDS011;24243;51.956;5.902;2023-06-22T08:24:27;4.70;;;3.78;;
38463;SDS011;24243;51.956;5.902;2023-06-22T08:27:14;4.97;;;3.60;;
38463;SDS011;24243;51.956;5.902;2023-06-22T08:30:02;5.07;;;3.70;;
38463;SDS011;24243;51.956;5.902;2023-06-22T08:32:46;4.32;;;3.80;;
38463;SDS011;24243;51.956;5.902;2023-06-22T08:35:31;5.70;;;3.75;;
38463;SDS011;24243;51.956;5.902;2023-06-22T08:38:15;5.07;;;3.13;;
38463;SDS011;24243;51.956;5.902;2023-06-22T08:41:02;4.05;;;3.35;;
38463;SDS011;24243;51.956;5.902;2023-06-22T08:43:46;3.60;;;2.95;;
38463;SDS011;24243;51.956;5.902;2023-06-22T08:46:31;3.17;;;2.85;;
38463;SDS011;24243;51.956;5.902;2023-06-22T08:49:15;2.78;;;2.45;;
38463;SDS011;24243;51.956;5.902;2023-06-22T08:51:59;3.15;;;2.85;;
38463;SDS011;24243;51.956;5.902;2023-06-22T08:54:44;3.28;;;2.67;;
38463;SDS011;24243;51.956;5.902;2023-06-22T08:57:28;5.85;;;3.53;;
38463;SDS011;24243;51.956;5.902;2023-06-22T09:00:14;4.40;;;3.40;;
38463;SDS011;24243;51.956;5.902;2023-06-22T09:03:00;3.83;;;2.90;;
38463;SDS011;24243;51.956;5.902;2023-06-22T09:05:44;3.97;;;3.30;;
38463;SDS011;24243;51.956;5.902;2023-06-22T09:08:28;5.20;;;3.45;;
38463;SDS011;24243;51.956;5.902;2023-06-22T09:11:12;4.10;;;3.00;;
38463;SDS011;24243;51.956;5.902;2023-06-22T09:13:57;5.03;;;3.50;;
38463;SDS011;24243;51.956;5.902;2023-06-22T09:16:41;3.47;;;2.85;;
38463;SDS011;24243;51.956;5.902;2023-06-22T09:19:25;3.35;;;2.85;;
38463;SDS011;24243;51.956;5.902;2023-06-22T09:22:09;4.15;;;3.00;;
38463;SDS011;24243;51.956;5.902;2023-06-22T09:24:53;2.92;;;2.63;;
38463;SDS011;24243;51.956;5.902;2023-06-22T09:27:38;2.92;;;2.35;;
38463;SDS011;24243;51.956;5.902;2023-06-22T09:30:22;3.58;;;3.00;;
38463;SDS011;24243;51.956;5.902;2023-06-22T09:33:07;3.78;;;2.72;;
38463;SDS011;24243;51.956;5.902;2023-06-22T09:35:51;3.70;;;2.80;;
38463;SDS011;24243;51.956;5.902;2023-06-22T09:38:36;3.10;;;2.63;;
38463;SDS011;24243;51.956;5.902;2023-06-22T09:41:21;3.22;;;2.65;;
38463;SDS011;24243;51.956;5.902;2023-06-22T09:44:06;3.95;;;3.00;;
38463;SDS011;24243;51.956;5.902;2023-06-22T09:46:51;3.17;;;2.60;;
38463;SDS011;24243;51.956;5.902;2023-06-22T09:49:35;2.53;;;2.33;;
38463;SDS011;24243;51.956;5.902;2023-06-22T09:52:20;3.22;;;2.63;;
38463;SDS011;24243;51.956;5.902;2023-06-22T09:55:04;3.05;;;2.50;;
38463;SDS011;24243;51.956;5.902;2023-06-22T09:57:49;3.72;;;2.75;;
38463;SDS011;24243;51.956;5.902;2023-06-22T10:00:33;2.88;;;2.40;;
38463;SDS011;24243;51.956;5.902;2023-06-22T10:03:17;4.25;;;2.42;;
38463;SDS011;24243;51.956;5.902;2023-06-22T10:06:02;3.60;;;2.50;;
38463;SDS011;24243;51.956;5.902;2023-06-22T10:08:47;3.17;;;2.60;;
38463;SDS011;24243;51.956;5.902;2023-06-22T10:11:32;3.58;;;2.65;;
38463;SDS011;24243;51.956;5.902;2023-06-22T10:14:18;3.08;;;2.47;;
38463;SDS011;24243;51.956;5.902;2023-06-22T10:17:03;3.35;;;2.50;;
38463;SDS011;24243;51.956;5.902;2023-06-22T10:19:47;4.68;;;2.20;;
38463;SDS011;24243;51.956;5.902;2023-06-22T10:22:32;3.85;;;2.42;;
38463;SDS011;24243;51.956;5.902;2023-06-22T10:25:16;2.95;;;2.30;;
38463;SDS011;24243;51.956;5.902;2023-06-22T10:28:00;3.72;;;2.20;;
38463;SDS011;24243;51.956;5.902;2023-06-22T10:30:44;2.80;;;2.45;;
38463;SDS011;24243;51.956;5.902;2023-06-22T10:33:29;3.20;;;2.28;;
38463;SDS011;24243;51.956;5.902;2023-06-22T10:36:13;2.65;;;2.40;;
38463;SDS011;24243;51.956;5.902;2023-06-22T10:38:57;2.88;;;2.45;;
38463;SDS011;24243;51.956;5.902;2023-06-22T10:41:43;3.17;;;2.50;;
38463;SDS011;24243;51.956;5.902;2023-06-22T10:44:27;2.97;;;2.42;;
38463;SDS011;24243;51.956;5.902;2023-06-22T10:47:11;2.78;;;2.42;;
38463;SDS011;24243;51.956;5.902;2023-06-22T10:49:56;3.45;;;2.88;;
38463;SDS011;24243;51.956;5.902;2023-06-22T10:52:41;3.15;;;2.50;;
38463;SDS011;24243;51.956;5.902;2023-06-22T10:55:25;4.35;;;2.70;;
38463;SDS011;24243;51.956;5.902;2023-06-22T10:58:09;2.55;;;2.28;;
38463;SDS011;24243;51.956;5.902;2023-06-22T11:00:53;4.07;;;2.83;;
38463;SDS011;24243;51.956;5.902;2023-06-22T11:03:38;3.83;;;2.92;;
38463;SDS011;24243;51.956;5.902;2023-06-22T11:06:22;4.10;;;2.75;;
38463;SDS011;24243;51.956;5.902;2023-06-22T11:09:06;3.22;;;2.42;;
38463;SDS011;24243;51.956;5.902;2023-06-22T11:11:51;3.28;;;2.63;;
38463;SDS011;24243;51.956;5.902;2023-06-22T11:14:37;6.05;;;2.97;;
38463;SDS011;24243;51.956;5.902;2023-06-22T11:17:23;3.47;;;2.70;;
38463;SDS011;24243;51.956;5.902;2023-06-22T11:20:07;3.00;;;2.50;;
38463;SDS011;24243;51.956;5.902;2023-06-22T11:22:54;3.45;;;2.80;;
38463;SDS011;24243;51.956;5.902;2023-06-22T11:25:39;3.67;;;2.55;;
38463;SDS011;24243;51.956;5.902;2023-06-22T11:28:26;4.10;;;3.70;;
38463;SDS011;24243;51.956;5.902;2023-06-22T11:31:10;3.50;;;2.95;;
38463;SDS011;24243;51.956;5.902;2023-06-22T11:33:54;2.92;;;2.05;;
38463;SDS011;24243;51.956;5.902;2023-06-22T11:36:39;4.43;;;2.63;;
38463;SDS011;24243;51.956;5.902;2023-06-22T11:39:23;2.70;;;2.38;;
38463;SDS011;24243;51.956;5.902;2023-06-22T11:42:07;2.65;;;2.10;;
38463;SDS011;24243;51.956;5.902;2023-06-22T11:44:52;3.47;;;2.10;;
38463;SDS011;24243;51.956;5.902;2023-06-22T11:47:37;3.15;;;2.13;;
38463;SDS011;24243;51.956;5.902;2023-06-22T11:50:21;3.20;;;2.42;;
38463;SDS011;24243;51.956;5.902;2023-06-22T11:53:06;2.97;;;2.13;;
38463;SDS011;24243;51.956;5.902;2023-06-22T11:55:50;3.10;;;2.50;;
38463;SDS011;24243;51.956;5.902;2023-06-22T11:58:35;3.00;;;2.45;;
38463;SDS011;24243;51.956;5.902;2023-06-22T12:01:19;3.95;;;2.20;;
38463;SDS011;24243;51.956;5.902;2023-06-22T12:04:04;2.97;;;2.33;;
38463;SDS011;24243;51.956;5.902;2023-06-22T12:06:49;4.22;;;2.70;;
38463;SDS011;24243;51.956;5.902;2023-06-22T12:09:34;3.33;;;2.47;;
38463;SDS011;24243;51.956;5.902;2023-06-22T12:12:18;3.35;;;2.70;;
38463;SDS011;24243;51.956;5.902;2023-06-22T12:15:02;4.72;;;2.78;;
38463;SDS011;24243;51.956;5.902;2023-06-22T12:17:47;3.85;;;3.00;;
38463;SDS011;24243;51.956;5.902;2023-06-22T12:20:31;3.22;;;2.75;;
38463;SDS011;24243;51.956;5.902;2023-06-22T12:23:16;4.50;;;3.05;;
38463;SDS011;24243;51.956;5.902;2023-06-22T12:26:00;3.42;;;2.60;;
38463;SDS011;24243;51.956;5.902;2023-06-22T12:28:45;3.17;;;2.67;;
38463;SDS011;24243;51.956;5.902;2023-06-22T12:31:29;4.07;;;3.00;;
38463;SDS011;24243;51.956;5.902;2023-06-22T12:34:13;3.78;;;3.08;;
38463;SDS011;24243;51.956;5.902;2023-06-22T12:36:57;3.38;;;2.85;;
38463;SDS011;24243;51.956;5.902;2023-06-22T12:39:43;5.50;;;3.47;;
38463;SDS011;24243;51.956;5.902;2023-06-22T12:42:28;6.15;;;3.45;;
38463;SDS011;24243;51.956;5.902;2023-06-22T12:45:12;4.38;;;3.40;;
38463;SDS011;24243;51.956;5.902;2023-06-22T12:47:57;4.93;;;3.33;;
38463;SDS011;24243;51.956;5.902;2023-06-22T12:50:41;3.88;;;3.33;;
38463;SDS011;24243;51.956;5.902;2023-06-22T12:53:26;4.70;;;3.20;;
38463;SDS011;24243;51.956;5.902;2023-06-22T12:56:11;5.18;;;3.63;;
38463;SDS011;24243;51.956;5.902;2023-06-22T12:58:55;4.82;;;3.85;;
38463;SDS011;24243;51.956;5.902;2023-06-22T13:01:39;3.85;;;3.38;;
38463;SDS011;24243;51.956;5.902;2023-06-22T13:04:23;5.32;;;3.30;;
38463;SDS011;24243;51.956;5.902;2023-06-22T13:07:08;4.90;;;3.75;;
38463;SDS011;24243;51.956;5.902;2023-06-22T13:09:53;5.75;;;3.60;;
38463;SDS011;24243;51.956;5.902;2023-06-22T13:12:37;4.65;;;3.55;;
38463;SDS011;24243;51.956;5.902;2023-06-22T13:15:21;4.18;;;3.47;;
38463;SDS011;24243;51.956;5.902;2023-06-22T13:18:06;4.82;;;3.38;;
38463;SDS011;24243;51.956;5.902;2023-06-22T13:20:50;4.25;;;3.20;;
38463;SDS011;24243;51.956;5.902;2023-06-22T13:23:36;3.40;;;3.03;;
38463;SDS011;24243;51.956;5.902;2023-06-22T13:26:20;4.20;;;3.38;;
38463;SDS011;24243;51.956;5.902;2023-06-22T13:29:05;3.63;;;3.13;;
38463;SDS011;24243;51.956;5.902;2023-06-22T13:31:49;4.78;;;3.40;;
38463;SDS011;24243;51.956;5.902;2023-06-22T13:34:34;4.30;;;3.47;;
38463;SDS011;24243;51.956;5.902;2023-06-22T13:37:18;4.70;;;3.70;;
38463;SDS011;24243;51.956;5.902;2023-06-22T13:40:04;4.18;;;3.45;;
38463;SDS011;24243;51.956;5.902;2023-06-22T13:42:51;5.35;;;3.55;;
38463;SDS011;24243;51.956;5.902;2023-06-22T13:45:36;4.82;;;3.83;;
38463;SDS011;24243;51.956;5.902;2023-06-22T13:48:20;6.82;;;3.88;;
38463;SDS011;24243;51.956;5.902;2023-06-22T13:51:06;4.57;;;3.75;;
38463;SDS011;24243;51.956;5.902;2023-06-22T13:53:50;5.38;;;3.58;;
38463;SDS011;24243;51.956;5.902;2023-06-22T13:56:35;5.57;;;4.18;;
38463;SDS011;24243;51.956;5.902;2023-06-22T13:59:19;5.65;;;3.60;;
38463;SDS011;24243;51.956;5.902;2023-06-22T14:02:04;6.25;;;3.78;;
38463;SDS011;24243;51.956;5.902;2023-06-22T14:04:49;5.13;;;4.00;;
38463;SDS011;24243;51.956;5.902;2023-06-22T14:07:33;4.30;;;3.90;;
38463;SDS011;24243;51.956;5.902;2023-06-22T14:10:18;4.88;;;4.30;;
38463;SDS011;24243;51.956;5.902;2023-06-22T14:13:02;5.97;;;4.75;;
38463;SDS011;24243;51.956;5.902;2023-06-22T14:15:49;6.03;;;3.90;;
38463;SDS011;24243;51.956;5.902;2023-06-22T14:18:35;4.97;;;4.47;;
38463;SDS011;24243;51.956;5.902;2023-06-22T14:21:19;5.28;;;4.20;;
38463;SDS011;24243;51.956;5.902;2023-06-22T14:24:04;5.63;;;4.57;;
38463;SDS011;24243;51.956;5.902;2023-06-22T14:26:49;5.65;;;4.70;;
38463;SDS011;24243;51.956;5.902;2023-06-22T14:29:33;5.60;;;4.32;;
38463;SDS011;24243;51.956;5.902;2023-06-22T14:32:17;5.50;;;4.68;;
38463;SDS011;24243;51.956;5.902;2023-06-22T14:35:02;4.93;;;4.43;;
38463;SDS011;24243;51.956;5.902;2023-06-22T14:37:46;5.50;;;4.53;;
38463;SDS011;24243;51.956;5.902;2023-06-22T14:40:30;4.97;;;4.30;;
38463;SDS011;24243;51.956;5.902;2023-06-22T14:43:16;4.93;;;4.38;;
38463;SDS011;24243;51.956;5.902;2023-06-22T14:46:00;5.05;;;4.00;;
38463;SDS011;24243;51.956;5.902;2023-06-22T14:48:45;4.30;;;3.90;;
38463;SDS011;24243;51.956;5.902;2023-06-22T14:51:29;4.05;;;3.40;;
38463;SDS011;24243;51.956;5.902;2023-06-22T14:54:14;4.97;;;4.18;;
38463;SDS011;24243;51.956;5.902;2023-06-22T14:56:58;4.55;;;4.15;;
38463;SDS011;24243;51.956;5.902;2023-06-22T14:59:42;6.07;;;4.70;;
38463;SDS011;24243;51.956;5.902;2023-06-22T15:02:26;5.63;;;4.85;;
38463;SDS011;24243;51.956;5.902;2023-06-22T15:05:11;5.93;;;4.53;;
38463;SDS011;24243;51.956;5.902;2023-06-22T15:07:56;4.72;;;3.75;;
38463;SDS011;24243;51.956;5.902;2023-06-22T15:10:40;5.10;;;4.55;;
38463;SDS011;24243;51.956;5.902;2023-06-22T15:13:24;6.63;;;4.90;;
38463;SDS011;24243;51.956;5.902;2023-06-22T15:16:09;5.72;;;4.80;;
38463;SDS011;24243;51.956;5.902;2023-06-22T15:18:54;4.72;;;3.95;;
38463;SDS011;24243;51.956;5.902;2023-06-22T15:21:39;4.80;;;4.30;;
38463;SDS011;24243;51.956;5.902;2023-06-22T15:24:11;5.47;;;4.55;;
38463;SDS011;24243;51.956;5.902;2023-06-22T15:26:37;5.47;;;3.88;;
38463;SDS011;24243;51.956;5.902;2023-06-22T15:29:03;5.22;;;4.72;;
38463;SDS011;24243;51.956;5.902;2023-06-22T15:31:29;5.80;;;5.18;;
38463;SDS011;24243;51.956;5.902;2023-06-22T15:33:55;6.15;;;5.55;;
38463;SDS011;24243;51.956;5.902;2023-06-22T15:36:21;5.93;;;4.97;;
38463;SDS011;24243;51.956;5.902;2023-06-22T15:38:47;5.90;;;5.30;;
38463;SDS011;24243;51.956;5.902;2023-06-22T15:41:13;5.63;;;5.10;;
38463;SDS011;24243;51.956;5.902;2023-06-22T15:43:39;6.78;;;4.93;;
38463;SDS011;24243;51.956;5.902;2023-06-22T15:46:05;6.72;;;5.22;;
38463;SDS011;24243;51.956;5.902;2023-06-22T15:48:30;6.55;;;5.80;;
38463;SDS011;24243;51.956;5.902;2023-06-22T15:50:56;6.97;;;4.97;;
38463;SDS011;24243;51.956;5.902;2023-06-22T15:53:22;5.60;;;4.95;;
38463;SDS011;24243;51.956;5.902;2023-06-22T15:55:48;5.82;;;4.88;;
38463;SDS011;24243;51.956;5.902;2023-06-22T15:58:14;7.20;;;5.63;;
38463;SDS011;24243;51.956;5.902;2023-06-22T16:00:41;6.15;;;4.82;;
38463;SDS011;24243;51.956;5.902;2023-06-22T16:03:07;5.35;;;4.85;;
38463;SDS011;24243;51.956;5.902;2023-06-22T16:05:34;6.13;;;5.07;;
38463;SDS011;24243;51.956;5.902;2023-06-22T16:07:59;5.53;;;4.85;;
38463;SDS011;24243;51.956;5.902;2023-06-22T16:10:25;6.22;;;5.60;;
38463;SDS011;24243;51.956;5.902;2023-06-22T16:12:51;6.53;;;5.68;;
38463;SDS011;24243;51.956;5.902;2023-06-22T16:15:18;6.45;;;5.85;;
38463;SDS011;24243;51.956;5.902;2023-06-22T16:17:44;7.68;;;5.72;;
38463;SDS011;24243;51.956;5.902;2023-06-22T16:20:10;6.82;;;5.85;;
38463;SDS011;24243;51.956;5.902;2023-06-22T16:22:37;7.03;;;5.35;;
38463;SDS011;24243;51.956;5.902;2023-06-22T16:25:03;6.18;;;5.28;;
38463;SDS011;24243;51.956;5.902;2023-06-22T16:27:29;6.28;;;5.43;;
38463;SDS011;24243;51.956;5.902;2023-06-22T16:29:56;6.25;;;5.22;;
38463;SDS011;24243;51.956;5.902;2023-06-22T16:32:22;7.00;;;5.55;;